METAR rapporter

 

EKAH - Tirstrup (civ/Mi, Denmark
Afstand fra stationen: SSV 25km
Opdateret: 08/04/2020 06:50
Klart
Klart
 Vind fra S
Vind: S 2 km/h
Temperatur: 2°C
Dugpunkt: 0°C
Fugtighed: 87%
Barometer: 1030 hPa
Skydække: Klart
Sigtbarhed: 10 km
2020/04/08 04:50 EKAH 080450Z AUTO 18001KT 9999NDV NCD 02/00 Q1030
EKYT - Alborg, Denmark
Afstand fra stationen: NV 91km
Opdateret: 08/04/2020 06:50
Klart
Klart
 Vind fra calm
Vind: Vindstille
Temperatur: 1°C
Dugpunkt: -1°C
Fugtighed: 87%
Barometer: 1029 hPa
Oversigt: Klart
Sigtbarhed: Mere end 10 km
2020/04/08 04:50 EKYT 080450Z 00000KT CAVOK 01/M01 Q1029
EKKA - Karup (dan-Afb), Denmark
Afstand fra stationen: V 107km
Opdateret: 08/04/2020 06:50
Klart
Klart
 Vind fra SSØ
Vind: SSØ 9 km/h
Temperatur: 3°C
Kuldeindeks: 0°C
Dugpunkt: 0°C
Fugtighed: 81%
Barometer: 1028 hPa
Skydække: Klart
Sigtbarhed: 10 km
2020/04/08 04:50 EKKA 080450Z AUTO 16005KT 9999 NCD 03/M00 Q1028
 
EKOD - Odense/Beldringe, Denmark
Afstand fra stationen: SSV 116km
Opdateret: 07/04/2020 17:50
Ikke opdateret
Klart
Klart
 Vind fra NV
Vind: NV 15 km/h
Temperatur: 15°C
Dugpunkt: 1°C
Fugtighed: 39%
Barometer: 1032 hPa
Oversigt: Klart
Sigtbarhed: Mere end 10 km
2020/04/07 15:50 EKOD 071550Z 31008KT 250V340 CAVOK 15/01 Q1032
EKBI - Billund Airport, Denmark
Afstand fra stationen: SV 134km
Opdateret: 08/04/2020 06:50
Klart
Klart
 Vind fra ØSØ
Vind: ØSØ 7 km/h
Temperatur: 4°C
Kuldeindeks: 2°C
Dugpunkt: 0°C
Fugtighed: 75%
Barometer: 1029 hPa
Skydække: Klart
Sigtbarhed: 10 km
2020/04/08 04:50 EKBI 080450Z AUTO 12004KT 9999 NCD 04/M00 Q1029
EKCH - Copenhagen/Kastr, Denmark
Afstand fra stationen: SØ 148km
Opdateret: 08/04/2020 06:50
Klart
Klart
 Vind fra SSØ
Vind: SSØ 11 km/h
Temperatur: 6°C
Kuldeindeks: 4°C
Dugpunkt: 2°C
Fugtighed: 76%
Barometer: 1031 hPa
Skydække: Klart
Sigtbarhed: 10 km
2020/04/08 04:50 EKCH 080450Z AUTO 16006KT 9999 NCD 06/02 Q1031 NOSIG